»·PEaware :: HAL48 PHNL-KOAK

HAL48 :: PHNL-KOAK

FLIGHT INFORMATION

Flight Status: Arrived
Operator:
Hawaiian Airlines
More flights by this operator :: More flights under this callsign
Pilot: Justin U. (116)
Aircraft: BOEING 767-300
(B763)
More flights by this aircraft type
Origin: PHNL Honolulu Intl
United States
Destination: KOAK Metro Oakland Intl
United States
More flights between these airports :: More routes between these airports
Route: MKK4 CLUTS R465 CEBEN R465 CORTT R465 CREAN R465 CINNY PIRAT OSI
File this flight plan on PilotEdge
Remarks: SEL / FQLP / V /
Altitude:
(Current/Filed)
37,000ft
Speed:
(Current/Filed)
461kts
Departed: 28-Apr-12 07:47 PM
Arrived: 28-Apr-12 08:37 PM
Distance/Time
Traveled:
2090nm/0:50
Distance/Time
To Go:
Arrived

Flight Plot

Page will automatically refresh every two minutes.


Map Options




Map Legend


Flown Route
Filed Route
Departure Airport
Arrival Airport
Navaid (VOR, NDB)
Fix

Horizontal Profiles

Position Reports

Time Latitude Longitude Heading Altitude Ground
Speed
28-Apr-12 19:45 35.118296 -128.164713 67 37080ft 474kts
28-Apr-12 19:46 35.164635 -128.014148 66 37117ft 474kts
28-Apr-12 19:47 35.210775 -127.862175 65 37117ft 482kts
28-Apr-12 19:48 35.257598 -127.708411 65 37123ft 485kts
28-Apr-12 19:49 35.304107 -127.553414 66 37117ft 485kts
28-Apr-12 19:50 35.350734 -127.398567 65 37123ft 485kts
28-Apr-12 19:51 35.397041 -127.243273 66 37122ft 486kts
28-Apr-12 19:52 35.442885 -127.087547 65 37122ft 486kts
28-Apr-12 19:53 35.489625 -126.932312 65 37121ft 486kts
28-Apr-12 19:54 35.542189 -126.749788 66 37121ft 487kts
28-Apr-12 19:55 35.579472 -126.618926 66 37121ft 487kts
28-Apr-12 19:56 35.625945 -126.462797 65 37121ft 487kts
28-Apr-12 19:57 35.671635 -126.306212 67 37122ft 488kts
28-Apr-12 19:58 35.715566 -126.149019 66 37122ft 485kts
28-Apr-12 19:59 35.764671 -125.994912 61 37123ft 483kts
28-Apr-12 20:00 35.819822 -125.844558 55 37125ft 479kts
28-Apr-12 20:01 35.890940 -125.705921 52 37119ft 477kts
28-Apr-12 20:02 35.962493 -125.567961 53 37111ft 478kts
28-Apr-12 20:03 36.032285 -125.428039 53 37111ft 479kts
28-Apr-12 20:04 36.101630 -125.287653 54 37110ft 479kts
28-Apr-12 20:05 36.170136 -125.146397 54 37112ft 479kts
28-Apr-12 20:06 36.239443 -125.005704 53 37113ft 478kts
28-Apr-12 20:07 36.309360 -124.865489 53 37114ft 479kts
28-Apr-12 20:08 36.378380 -124.724322 54 37114ft 479kts
28-Apr-12 20:09 36.446685 -124.582414 54 37114ft 479kts
28-Apr-12 20:10 36.515211 -124.441878 52 37121ft 472kts
28-Apr-12 20:11 36.582073 -124.300772 53 37122ft 475kts
28-Apr-12 20:12 36.649019 -124.159106 54 37112ft 474kts
28-Apr-12 20:13 36.717602 -124.017235 52 37116ft 481kts
28-Apr-12 20:14 36.787032 -123.872588 52 35372ft 485kts
28-Apr-12 20:15 36.855055 -123.728282 53 32779ft 485kts
28-Apr-12 20:16 36.921773 -123.584272 54 30180ft 472kts
28-Apr-12 20:17 36.987345 -123.445272 53 27574ft 454kts
28-Apr-12 20:18 37.049596 -123.313880 54 24972ft 425kts
28-Apr-12 20:19 37.107903 -123.189583 54 22370ft 405kts
28-Apr-12 20:20 37.162378 -123.069135 55 19656ft 390kts
28-Apr-12 20:21 37.215502 -122.953208 54 16864ft 387kts
28-Apr-12 20:22 37.266768 -122.834011 67 14049ft 398kts
28-Apr-12 20:23 37.295004 -122.705471 71 11241ft 360kts
28-Apr-12 20:24 37.319352 -122.594591 69 10010ft 292kts
28-Apr-12 20:25 37.342104 -122.498498 68 8220ft 274kts
28-Apr-12 20:26 37.364014 -122.406449 67 6844ft 284kts
28-Apr-12 20:27 37.389506 -122.296704 69 5085ft 267kts
28-Apr-12 20:28 37.412311 -122.225536 50 4834ft 263kts
28-Apr-12 20:29 37.457282 -122.155115 43 3990ft 240kts
28-Apr-12 20:30 37.503730 -122.084976 42 3984ft 211kts
28-Apr-12 20:31 37.548391 -122.071151 358 3648ft 201kts
28-Apr-12 20:32 37.601498 -122.085607 335 2773ft 194kts
28-Apr-12 20:33 37.640313 -122.123627 303 1868ft 162kts
28-Apr-12 20:34 37.667640 -122.164000 308 1217ft 145kts
28-Apr-12 20:35 37.694872 -122.204376 308 248ft 147kts
28-Apr-12 20:36 37.710731 -122.226417 4 20ft 23kts
28-Apr-12 20:37 37.711841 -122.223574 48 20ft 17kts
28-Apr-12 20:38 37.712331 -122.219465 127 20ft 10kts
28-Apr-12 20:39 37.710289 -122.215955 88 20ft 11kts
28-Apr-12 20:40 37.712176 -122.214650 311 20ft 1kts
28-Apr-12 20:41 37.712188 -122.214667 311 20ft 0kts
28-Apr-12 20:42 37.712188 -122.214667 311 20ft 0kts
28-Apr-12 20:43 37.712188 -122.214667 311 20ft 0kts
28-Apr-12 20:44 37.712188 -122.214667 311 20ft 0kts
28-Apr-12 20:45 37.712188 -122.214667 311 20ft 0kts
28-Apr-12 20:46 37.712188 -122.214667 311 20ft 0kts
28-Apr-12 20:47 37.712188 -122.214667 311 20ft 0kts
28-Apr-12 20:48 37.712188 -122.214667 311 20ft 0kts
28-Apr-12 20:49 37.712188 -122.214667 311 20ft 0kts
28-Apr-12 20:50 37.712188 -122.214667 311 20ft 0kts

Navigation Log

Ident Type
1. PHNL Airport
2. MKK42 Fix
3. CLUTS Fix
4. CEBEN Fix
5. CIVIT Fix
6. CORTT Fix
7. CUNDU Fix
8. CREAN Fix
9. CINNY Fix
10. PIRAT Fix
11. OSI Navaid
12. KOAK Airport